sensor_id;sensor_type;location;lat;lon;timestamp;temperature;humidity
7129;DHT22;3606;52.930;8.644;2023-04-25T00:02:00;7.10;99.90
7129;DHT22;3606;52.930;8.644;2023-04-25T00:04:26;6.90;99.90
7129;DHT22;3606;52.930;8.644;2023-04-25T00:06:53;6.80;99.90
7129;DHT22;3606;52.930;8.644;2023-04-25T00:09:19;6.60;99.90
7129;DHT22;3606;52.930;8.644;2023-04-25T00:11:45;6.60;99.90
7129;DHT22;3606;52.930;8.644;2023-04-25T00:14:10;6.50;99.90
7129;DHT22;3606;52.930;8.644;2023-04-25T00:16:36;6.40;99.90
7129;DHT22;3606;52.930;8.644;2023-04-25T00:19:02;6.40;99.90
7129;DHT22;3606;52.930;8.644;2023-04-25T00:21:28;6.30;99.90
7129;DHT22;3606;52.930;8.644;2023-04-25T00:23:54;6.40;99.90
7129;DHT22;3606;52.930;8.644;2023-04-25T00:26:20;6.30;99.90
7129;DHT22;3606;52.930;8.644;2023-04-25T00:28:47;6.30;99.90
7129;DHT22;3606;52.930;8.644;2023-04-25T00:31:12;6.30;99.90
7129;DHT22;3606;52.930;8.644;2023-04-25T00:33:38;6.30;99.90
7129;DHT22;3606;52.930;8.644;2023-04-25T00:36:04;6.30;99.90
7129;DHT22;3606;52.930;8.644;2023-04-25T00:38:30;6.30;99.90
7129;DHT22;3606;52.930;8.644;2023-04-25T00:40:56;6.30;99.90
7129;DHT22;3606;52.930;8.644;2023-04-25T00:43:26;6.20;99.90
7129;DHT22;3606;52.930;8.644;2023-04-25T00:45:52;6.30;99.90
7129;DHT22;3606;52.930;8.644;2023-04-25T00:48:19;6.20;99.90
7129;DHT22;3606;52.930;8.644;2023-04-25T00:50:59;6.20;99.90
7129;DHT22;3606;52.930;8.644;2023-04-25T00:53:26;6.20;99.90
7129;DHT22;3606;52.930;8.644;2023-04-25T00:55:52;6.20;99.90
7129;DHT22;3606;52.930;8.644;2023-04-25T00:58:19;6.20;99.90
7129;DHT22;3606;52.930;8.644;2023-04-25T01:00:46;6.10;99.90
7129;DHT22;3606;52.930;8.644;2023-04-25T01:03:16;6.10;99.90
7129;DHT22;3606;52.930;8.644;2023-04-25T01:05:43;6.10;99.90
7129;DHT22;3606;52.930;8.644;2023-04-25T01:08:09;6.10;99.90
7129;DHT22;3606;52.930;8.644;2023-04-25T01:10:35;6.00;99.90
7129;DHT22;3606;52.930;8.644;2023-04-25T01:13:01;6.00;99.90
7129;DHT22;3606;52.930;8.644;2023-04-25T01:15:27;5.90;99.90
7129;DHT22;3606;52.930;8.644;2023-04-25T01:17:53;5.80;99.90
7129;DHT22;3606;52.930;8.644;2023-04-25T01:20:22;5.80;99.90
7129;DHT22;3606;52.930;8.644;2023-04-25T01:22:48;5.80;99.90
7129;DHT22;3606;52.930;8.644;2023-04-25T01:25:16;5.80;99.90
7129;DHT22;3606;52.930;8.644;2023-04-25T01:27:42;5.70;99.90
7129;DHT22;3606;52.930;8.644;2023-04-25T01:30:08;5.80;99.90
7129;DHT22;3606;52.930;8.644;2023-04-25T01:32:34;5.80;99.90
7129;DHT22;3606;52.930;8.644;2023-04-25T01:35:08;5.70;99.90
7129;DHT22;3606;52.930;8.644;2023-04-25T01:37:42;5.70;99.90
7129;DHT22;3606;52.930;8.644;2023-04-25T01:40:09;5.70;99.90
7129;DHT22;3606;52.930;8.644;2023-04-25T01:42:37;5.70;99.90
7129;DHT22;3606;52.930;8.644;2023-04-25T01:45:03;5.60;99.90
7129;DHT22;3606;52.930;8.644;2023-04-25T01:47:29;5.60;99.90
7129;DHT22;3606;52.930;8.644;2023-04-25T01:49:55;5.60;99.90
7129;DHT22;3606;52.930;8.644;2023-04-25T01:52:21;5.50;99.90
7129;DHT22;3606;52.930;8.644;2023-04-25T01:54:47;5.50;99.90
7129;DHT22;3606;52.930;8.644;2023-04-25T01:57:13;5.50;99.90
7129;DHT22;3606;52.930;8.644;2023-04-25T01:59:39;5.50;99.90
7129;DHT22;3606;52.930;8.644;2023-04-25T02:02:06;5.50;99.90
7129;DHT22;3606;52.930;8.644;2023-04-25T02:04:32;5.40;99.90
7129;DHT22;3606;52.930;8.644;2023-04-25T02:06:57;5.40;99.90
7129;DHT22;3606;52.930;8.644;2023-04-25T02:09:23;5.40;99.90
7129;DHT22;3606;52.930;8.644;2023-04-25T02:11:49;5.30;99.90
7129;DHT22;3606;52.930;8.644;2023-04-25T02:14:14;5.30;99.90
7129;DHT22;3606;52.930;8.644;2023-04-25T02:16:40;5.30;99.90
7129;DHT22;3606;52.930;8.644;2023-04-25T02:19:06;5.20;99.90
7129;DHT22;3606;52.930;8.644;2023-04-25T02:21:32;5.20;99.90
7129;DHT22;3606;52.930;8.644;2023-04-25T02:24:01;5.20;99.90
7129;DHT22;3606;52.930;8.644;2023-04-25T02:26:26;5.20;99.90
7129;DHT22;3606;52.930;8.644;2023-04-25T02:28:52;5.20;99.90
7129;DHT22;3606;52.930;8.644;2023-04-25T02:31:17;5.20;99.90
7129;DHT22;3606;52.930;8.644;2023-04-25T02:33:43;5.20;99.90
7129;DHT22;3606;52.930;8.644;2023-04-25T02:36:09;5.10;99.90
7129;DHT22;3606;52.930;8.644;2023-04-25T02:38:35;5.10;99.90
7129;DHT22;3606;52.930;8.644;2023-04-25T02:41:00;5.00;99.90
7129;DHT22;3606;52.930;8.644;2023-04-25T02:43:26;4.90;99.90
7129;DHT22;3606;52.930;8.644;2023-04-25T02:45:51;4.90;99.90
7129;DHT22;3606;52.930;8.644;2023-04-25T02:48:17;4.90;99.90
7129;DHT22;3606;52.930;8.644;2023-04-25T02:50:43;4.90;99.90
7129;DHT22;3606;52.930;8.644;2023-04-25T02:53:08;4.90;99.90
7129;DHT22;3606;52.930;8.644;2023-04-25T02:55:34;4.90;99.90
7129;DHT22;3606;52.930;8.644;2023-04-25T02:58:00;4.90;99.90
7129;DHT22;3606;52.930;8.644;2023-04-25T03:00:25;4.90;99.90
7129;DHT22;3606;52.930;8.644;2023-04-25T03:02:51;4.80;99.90
7129;DHT22;3606;52.930;8.644;2023-04-25T03:05:17;4.80;99.90
7129;DHT22;3606;52.930;8.644;2023-04-25T03:07:43;4.90;99.90
7129;DHT22;3606;52.930;8.644;2023-04-25T03:10:10;4.90;99.90
7129;DHT22;3606;52.930;8.644;2023-04-25T03:12:36;5.00;99.90
7129;DHT22;3606;52.930;8.644;2023-04-25T03:15:02;5.00;99.90
7129;DHT22;3606;52.930;8.644;2023-04-25T03:17:27;5.00;99.90
7129;DHT22;3606;52.930;8.644;2023-04-25T03:19:53;4.90;99.90
7129;DHT22;3606;52.930;8.644;2023-04-25T03:22:19;4.80;99.90
7129;DHT22;3606;52.930;8.644;2023-04-25T03:24:44;4.70;99.90
7129;DHT22;3606;52.930;8.644;2023-04-25T03:27:10;4.80;99.90
7129;DHT22;3606;52.930;8.644;2023-04-25T03:29:35;4.80;99.90
7129;DHT22;3606;52.930;8.644;2023-04-25T03:32:01;4.70;99.90
7129;DHT22;3606;52.930;8.644;2023-04-25T03:34:27;4.70;99.90
7129;DHT22;3606;52.930;8.644;2023-04-25T03:36:53;4.70;99.90
7129;DHT22;3606;52.930;8.644;2023-04-25T03:39:19;4.70;99.90
7129;DHT22;3606;52.930;8.644;2023-04-25T03:41:44;4.60;99.90
7129;DHT22;3606;52.930;8.644;2023-04-25T03:44:10;4.60;99.90
7129;DHT22;3606;52.930;8.644;2023-04-25T03:46:35;4.60;99.90
7129;DHT22;3606;52.930;8.644;2023-04-25T03:49:01;4.70;99.90
7129;DHT22;3606;52.930;8.644;2023-04-25T03:51:26;4.60;99.90
7129;DHT22;3606;52.930;8.644;2023-04-25T03:53:52;4.60;99.90
7129;DHT22;3606;52.930;8.644;2023-04-25T03:56:18;4.60;99.90
7129;DHT22;3606;52.930;8.644;2023-04-25T03:58:44;4.50;99.90
7129;DHT22;3606;52.930;8.644;2023-04-25T04:01:10;4.40;99.90
7129;DHT22;3606;52.930;8.644;2023-04-25T04:03:35;4.30;99.90
7129;DHT22;3606;52.930;8.644;2023-04-25T04:06:03;4.30;99.90
7129;DHT22;3606;52.930;8.644;2023-04-25T04:08:29;4.10;99.90
7129;DHT22;3606;52.930;8.644;2023-04-25T04:10:56;4.00;99.90
7129;DHT22;3606;52.930;8.644;2023-04-25T04:13:22;3.90;99.90
7129;DHT22;3606;52.930;8.644;2023-04-25T04:15:47;3.90;99.90
7129;DHT22;3606;52.930;8.644;2023-04-25T04:18:13;3.90;99.90
7129;DHT22;3606;52.930;8.644;2023-04-25T04:20:38;3.80;99.90
7129;DHT22;3606;52.930;8.644;2023-04-25T04:23:04;3.80;99.90
7129;DHT22;3606;52.930;8.644;2023-04-25T04:25:30;3.70;99.90
7129;DHT22;3606;52.930;8.644;2023-04-25T04:27:56;3.60;99.90
7129;DHT22;3606;52.930;8.644;2023-04-25T04:30:23;3.60;99.90
7129;DHT22;3606;52.930;8.644;2023-04-25T04:32:55;3.60;99.90
7129;DHT22;3606;52.930;8.644;2023-04-25T04:35:22;3.70;99.90
7129;DHT22;3606;52.930;8.644;2023-04-25T04:37:47;3.70;99.90
7129;DHT22;3606;52.930;8.644;2023-04-25T04:40:14;3.70;99.90
7129;DHT22;3606;52.930;8.644;2023-04-25T04:42:41;3.80;99.90
7129;DHT22;3606;52.930;8.644;2023-04-25T04:45:08;3.90;99.90
7129;DHT22;3606;52.930;8.644;2023-04-25T04:47:33;3.90;99.90
7129;DHT22;3606;52.930;8.644;2023-04-25T04:49:59;4.00;99.90
7129;DHT22;3606;52.930;8.644;2023-04-25T04:52:25;4.20;99.90
7129;DHT22;3606;52.930;8.644;2023-04-25T04:54:50;4.40;99.90
7129;DHT22;3606;52.930;8.644;2023-04-25T04:57:16;4.50;99.90
7129;DHT22;3606;52.930;8.644;2023-04-25T04:59:44;4.70;99.90
7129;DHT22;3606;52.930;8.644;2023-04-25T05:02:10;4.80;99.90
7129;DHT22;3606;52.930;8.644;2023-04-25T05:04:35;4.90;99.90
7129;DHT22;3606;52.930;8.644;2023-04-25T05:07:01;5.00;99.90
7129;DHT22;3606;52.930;8.644;2023-04-25T05:09:27;5.10;99.90
7129;DHT22;3606;52.930;8.644;2023-04-25T05:11:52;5.10;99.90
7129;DHT22;3606;52.930;8.644;2023-04-25T05:14:18;5.10;99.90
7129;DHT22;3606;52.930;8.644;2023-04-25T05:16:43;5.20;99.90
7129;DHT22;3606;52.930;8.644;2023-04-25T05:19:09;5.20;99.90
7129;DHT22;3606;52.930;8.644;2023-04-25T05:21:35;5.30;99.90
7129;DHT22;3606;52.930;8.644;2023-04-25T05:24:01;5.40;99.90
7129;DHT22;3606;52.930;8.644;2023-04-25T05:26:27;5.50;99.90
7129;DHT22;3606;52.930;8.644;2023-04-25T05:28:56;5.60;99.90
7129;DHT22;3606;52.930;8.644;2023-04-25T05:31:22;5.60;99.90
7129;DHT22;3606;52.930;8.644;2023-04-25T05:33:48;5.60;99.90
7129;DHT22;3606;52.930;8.644;2023-04-25T05:36:13;5.60;99.90
7129;DHT22;3606;52.930;8.644;2023-04-25T05:38:39;5.60;99.90
7129;DHT22;3606;52.930;8.644;2023-04-25T05:41:04;5.60;99.90
7129;DHT22;3606;52.930;8.644;2023-04-25T05:43:30;5.70;99.90
7129;DHT22;3606;52.930;8.644;2023-04-25T05:45:56;5.70;99.90
7129;DHT22;3606;52.930;8.644;2023-04-25T05:48:21;5.90;38.30
7129;DHT22;3606;52.930;8.644;2023-04-25T05:50:47;6.00;67.10
7129;DHT22;3606;52.930;8.644;2023-04-25T05:53:13;6.20;32.80
7129;DHT22;3606;52.930;8.644;2023-04-25T05:55:38;6.50;19.00
7129;DHT22;3606;52.930;8.644;2023-04-25T05:58:05;6.60;1.00
7129;DHT22;3606;52.930;8.644;2023-04-25T06:00:32;6.70;1.00
7129;DHT22;3606;52.930;8.644;2023-04-25T06:02:58;6.70;1.00
7129;DHT22;3606;52.930;8.644;2023-04-25T06:05:23;6.80;1.00
7129;DHT22;3606;52.930;8.644;2023-04-25T06:07:49;6.70;1.00
7129;DHT22;3606;52.930;8.644;2023-04-25T06:10:14;6.70;1.00
7129;DHT22;3606;52.930;8.644;2023-04-25T06:12:40;6.70;1.00
7129;DHT22;3606;52.930;8.644;2023-04-25T06:15:06;6.90;1.00
7129;DHT22;3606;52.930;8.644;2023-04-25T06:17:32;7.10;1.00
7129;DHT22;3606;52.930;8.644;2023-04-25T06:19:58;7.30;1.00
7129;DHT22;3606;52.930;8.644;2023-04-25T06:22:24;7.50;1.00
7129;DHT22;3606;52.930;8.644;2023-04-25T06:24:49;7.60;1.00
7129;DHT22;3606;52.930;8.644;2023-04-25T06:27:15;7.80;1.00
7129;DHT22;3606;52.930;8.644;2023-04-25T06:29:40;8.10;1.00
7129;DHT22;3606;52.930;8.644;2023-04-25T06:32:06;8.40;1.00
7129;DHT22;3606;52.930;8.644;2023-04-25T06:34:31;9.00;1.00
7129;DHT22;3606;52.930;8.644;2023-04-25T06:36:57;9.20;99.90
7129;DHT22;3606;52.930;8.644;2023-04-25T06:39:22;9.40;99.90
7129;DHT22;3606;52.930;8.644;2023-04-25T06:41:50;9.70;99.90
7129;DHT22;3606;52.930;8.644;2023-04-25T06:44:15;10.10;99.90
7129;DHT22;3606;52.930;8.644;2023-04-25T06:46:41;9.80;99.90
7129;DHT22;3606;52.930;8.644;2023-04-25T06:49:06;9.20;99.90
7129;DHT22;3606;52.930;8.644;2023-04-25T06:51:32;8.70;99.90
7129;DHT22;3606;52.930;8.644;2023-04-25T06:53:58;8.40;99.90
7129;DHT22;3606;52.930;8.644;2023-04-25T06:56:24;8.30;99.90
7129;DHT22;3606;52.930;8.644;2023-04-25T06:58:49;8.40;99.90
7129;DHT22;3606;52.930;8.644;2023-04-25T07:01:15;9.10;99.90
7129;DHT22;3606;52.930;8.644;2023-04-25T07:03:41;9.90;90.90
7129;DHT22;3606;52.930;8.644;2023-04-25T07:06:07;10.30;99.90
7129;DHT22;3606;52.930;8.644;2023-04-25T07:08:32;10.90;99.90
7129;DHT22;3606;52.930;8.644;2023-04-25T07:10:58;11.40;1.00
7129;DHT22;3606;52.930;8.644;2023-04-25T07:13:23;11.10;1.00
7129;DHT22;3606;52.930;8.644;2023-04-25T07:15:49;10.30;1.00
7129;DHT22;3606;52.930;8.644;2023-04-25T07:18:14;9.80;77.10
7129;DHT22;3606;52.930;8.644;2023-04-25T07:20:40;9.60;99.90
7129;DHT22;3606;52.930;8.644;2023-04-25T07:23:06;9.80;99.90
7129;DHT22;3606;52.930;8.644;2023-04-25T07:25:32;10.20;3.50
7129;DHT22;3606;52.930;8.644;2023-04-25T07:27:57;10.00;13.50
7129;DHT22;3606;52.930;8.644;2023-04-25T07:30:23;9.60;99.90
7129;DHT22;3606;52.930;8.644;2023-04-25T07:32:49;9.80;99.90
7129;DHT22;3606;52.930;8.644;2023-04-25T07:35:16;9.90;94.70
7129;DHT22;3606;52.930;8.644;2023-04-25T07:37:41;10.00;53.30
7129;DHT22;3606;52.930;8.644;2023-04-25T07:40:07;10.40;99.90
7129;DHT22;3606;52.930;8.644;2023-04-25T07:59:35;11.40;1.00
7129;DHT22;3606;52.930;8.644;2023-04-25T08:02:01;11.90;99.90
7129;DHT22;3606;52.930;8.644;2023-04-25T08:04:27;11.80;99.90
7129;DHT22;3606;52.930;8.644;2023-04-25T08:06:53;11.40;99.90
7129;DHT22;3606;52.930;8.644;2023-04-25T08:09:21;10.80;99.90
7129;DHT22;3606;52.930;8.644;2023-04-25T08:11:47;10.50;99.90
7129;DHT22;3606;52.930;8.644;2023-04-25T08:14:13;10.80;99.90
7129;DHT22;3606;52.930;8.644;2023-04-25T08:16:39;11.00;99.90
7129;DHT22;3606;52.930;8.644;2023-04-25T08:19:05;10.70;1.00
7129;DHT22;3606;52.930;8.644;2023-04-25T08:21:31;10.20;1.00
7129;DHT22;3606;52.930;8.644;2023-04-25T08:23:57;9.60;1.00
7129;DHT22;3606;52.930;8.644;2023-04-25T08:26:23;9.30;1.00
7129;DHT22;3606;52.930;8.644;2023-04-25T08:28:50;8.90;1.00
7129;DHT22;3606;52.930;8.644;2023-04-25T08:31:16;8.60;1.00
7129;DHT22;3606;52.930;8.644;2023-04-25T08:33:42;8.10;99.90
7129;DHT22;3606;52.930;8.644;2023-04-25T08:36:08;7.60;99.90
7129;DHT22;3606;52.930;8.644;2023-04-25T08:38:33;7.10;1.00
7129;DHT22;3606;52.930;8.644;2023-04-25T08:40:59;7.00;1.00
7129;DHT22;3606;52.930;8.644;2023-04-25T08:43:26;7.10;1.00
7129;DHT22;3606;52.930;8.644;2023-04-25T08:45:56;7.50;1.00
7129;DHT22;3606;52.930;8.644;2023-04-25T08:48:24;7.80;1.00
7129;DHT22;3606;52.930;8.644;2023-04-25T08:50:53;8.20;1.00
7129;DHT22;3606;52.930;8.644;2023-04-25T08:53:26;8.50;1.00
7129;DHT22;3606;52.930;8.644;2023-04-25T08:55:54;8.40;1.00
7129;DHT22;3606;52.930;8.644;2023-04-25T08:58:21;8.40;1.00
7129;DHT22;3606;52.930;8.644;2023-04-25T09:00:47;8.50;99.90
7129;DHT22;3606;52.930;8.644;2023-04-25T09:03:13;8.80;99.90
7129;DHT22;3606;52.930;8.644;2023-04-25T09:05:41;8.80;99.90
7129;DHT22;3606;52.930;8.644;2023-04-25T09:08:06;8.90;99.90
7129;DHT22;3606;52.930;8.644;2023-04-25T09:10:32;9.30;99.90
7129;DHT22;3606;52.930;8.644;2023-04-25T09:13:24;10.00;1.00
7129;DHT22;3606;52.930;8.644;2023-04-25T09:15:55;11.10;1.00
7129;DHT22;3606;52.930;8.644;2023-04-25T09:18:25;12.10;1.00
7129;DHT22;3606;52.930;8.644;2023-04-25T09:20:52;12.80;1.00
7129;DHT22;3606;52.930;8.644;2023-04-25T09:23:19;14.60;1.00
7129;DHT22;3606;52.930;8.644;2023-04-25T09:25:48;14.20;1.00
7129;DHT22;3606;52.930;8.644;2023-04-25T09:28:13;13.00;1.00
7129;DHT22;3606;52.930;8.644;2023-04-25T09:30:39;11.70;99.90
7129;DHT22;3606;52.930;8.644;2023-04-25T09:33:14;10.80;99.90
7129;DHT22;3606;52.930;8.644;2023-04-25T09:35:41;9.70;1.00
7129;DHT22;3606;52.930;8.644;2023-04-25T09:38:09;8.80;31.70
7129;DHT22;3606;52.930;8.644;2023-04-25T09:40:39;8.20;99.90
7129;DHT22;3606;52.930;8.644;2023-04-25T09:43:21;8.20;99.90
7129;DHT22;3606;52.930;8.644;2023-04-25T09:45:48;8.40;99.90
7129;DHT22;3606;52.930;8.644;2023-04-25T09:48:21;8.90;99.90
7129;DHT22;3606;52.930;8.644;2023-04-25T09:51:06;9.50;98.60
7129;DHT22;3606;52.930;8.644;2023-04-25T09:53:37;9.90;1.00
7129;DHT22;3606;52.930;8.644;2023-04-25T09:56:08;11.10;1.00
7129;DHT22;3606;52.930;8.644;2023-04-25T09:58:36;12.50;1.00
7129;DHT22;3606;52.930;8.644;2023-04-25T10:01:04;13.20;99.90
7129;DHT22;3606;52.930;8.644;2023-04-25T10:03:31;13.70;1.00
7129;DHT22;3606;52.930;8.644;2023-04-25T10:05:59;13.50;1.00
7129;DHT22;3606;52.930;8.644;2023-04-25T10:08:29;13.70;1.00
7129;DHT22;3606;52.930;8.644;2023-04-25T10:10:57;13.10;1.00
7129;DHT22;3606;52.930;8.644;2023-04-25T10:13:23;12.10;1.00
7129;DHT22;3606;52.930;8.644;2023-04-25T10:15:49;12.80;1.00
7129;DHT22;3606;52.930;8.644;2023-04-25T10:18:16;12.70;1.00
7129;DHT22;3606;52.930;8.644;2023-04-25T10:20:43;12.40;1.00
7129;DHT22;3606;52.930;8.644;2023-04-25T10:23:15;12.00;1.00
7129;DHT22;3606;52.930;8.644;2023-04-25T10:25:42;10.60;1.00
7129;DHT22;3606;52.930;8.644;2023-04-25T10:28:08;8.70;99.90
7129;DHT22;3606;52.930;8.644;2023-04-25T10:30:34;7.40;1.00
7129;DHT22;3606;52.930;8.644;2023-04-25T10:33:00;6.30;1.00
7129;DHT22;3606;52.930;8.644;2023-04-25T10:35:27;5.90;1.00
7129;DHT22;3606;52.930;8.644;2023-04-25T10:40:28;6.30;1.00
7129;DHT22;3606;52.930;8.644;2023-04-25T10:42:55;6.90;1.00
7129;DHT22;3606;52.930;8.644;2023-04-25T10:45:22;7.30;1.00
7129;DHT22;3606;52.930;8.644;2023-04-25T10:47:47;7.70;1.00
7129;DHT22;3606;52.930;8.644;2023-04-25T10:50:16;8.70;1.00
7129;DHT22;3606;52.930;8.644;2023-04-25T10:52:42;10.90;99.90
7129;DHT22;3606;52.930;8.644;2023-04-25T10:55:08;12.60;1.00
7129;DHT22;3606;52.930;8.644;2023-04-25T11:00:14;14.40;1.00
7129;DHT22;3606;52.930;8.644;2023-04-25T11:02:48;14.40;99.90
7129;DHT22;3606;52.930;8.644;2023-04-25T11:05:20;13.90;1.00
7129;DHT22;3606;52.930;8.644;2023-04-25T11:07:52;14.40;99.90
7129;DHT22;3606;52.930;8.644;2023-04-25T11:10:19;14.70;73.90
7129;DHT22;3606;52.930;8.644;2023-04-25T11:12:46;14.90;99.90
7129;DHT22;3606;52.930;8.644;2023-04-25T11:15:13;14.90;15.80
7129;DHT22;3606;52.930;8.644;2023-04-25T11:17:39;14.80;99.90
7129;DHT22;3606;52.930;8.644;2023-04-25T11:20:07;14.10;99.90
7129;DHT22;3606;52.930;8.644;2023-04-25T11:22:37;13.90;99.90
7129;DHT22;3606;52.930;8.644;2023-04-25T11:25:11;14.40;99.90
7129;DHT22;3606;52.930;8.644;2023-04-25T11:27:58;14.70;99.90
7129;DHT22;3606;52.930;8.644;2023-04-25T11:30:25;14.20;1.00
7129;DHT22;3606;52.930;8.644;2023-04-25T11:32:51;13.30;1.00
7129;DHT22;3606;52.930;8.644;2023-04-25T11:35:18;11.50;99.90
7129;DHT22;3606;52.930;8.644;2023-04-25T11:37:44;9.40;1.00
7129;DHT22;3606;52.930;8.644;2023-04-25T11:40:10;7.90;90.20
7129;DHT22;3606;52.930;8.644;2023-04-25T11:42:44;7.30;99.90
7129;DHT22;3606;52.930;8.644;2023-04-25T11:45:10;7.10;1.00
7129;DHT22;3606;52.930;8.644;2023-04-25T11:47:36;7.40;1.00
7129;DHT22;3606;52.930;8.644;2023-04-25T11:50:04;7.70;1.00
7129;DHT22;3606;52.930;8.644;2023-04-25T11:52:40;8.40;99.90
7129;DHT22;3606;52.930;8.644;2023-04-25T11:55:08;9.20;99.90
7129;DHT22;3606;52.930;8.644;2023-04-25T11:57:34;9.80;92.70
7129;DHT22;3606;52.930;8.644;2023-04-25T12:00:17;10.60;99.90
7129;DHT22;3606;52.930;8.644;2023-04-25T12:02:45;11.60;1.00
7129;DHT22;3606;52.930;8.644;2023-04-25T12:05:12;12.10;1.00
7129;DHT22;3606;52.930;8.644;2023-04-25T12:07:38;12.50;99.90
7129;DHT22;3606;52.930;8.644;2023-04-25T12:10:09;12.90;1.00
7129;DHT22;3606;52.930;8.644;2023-04-25T12:12:36;12.30;1.00
7129;DHT22;3606;52.930;8.644;2023-04-25T12:15:15;12.30;1.00
7129;DHT22;3606;52.930;8.644;2023-04-25T12:17:48;12.50;1.00
7129;DHT22;3606;52.930;8.644;2023-04-25T12:20:16;12.10;1.00
7129;DHT22;3606;52.930;8.644;2023-04-25T12:22:44;12.20;1.00
7129;DHT22;3606;52.930;8.644;2023-04-25T12:25:11;12.60;1.00
7129;DHT22;3606;52.930;8.644;2023-04-25T12:27:37;13.00;1.00
7129;DHT22;3606;52.930;8.644;2023-04-25T12:30:05;13.10;1.00
7129;DHT22;3606;52.930;8.644;2023-04-25T12:32:32;12.80;1.00
7129;DHT22;3606;52.930;8.644;2023-04-25T12:34:57;12.20;1.00
7129;DHT22;3606;52.930;8.644;2023-04-25T12:37:23;11.30;99.90
7129;DHT22;3606;52.930;8.644;2023-04-25T12:39:49;11.20;99.90
7129;DHT22;3606;52.930;8.644;2023-04-25T12:42:14;12.40;1.00
7129;DHT22;3606;52.930;8.644;2023-04-25T12:44:40;13.00;1.00
7129;DHT22;3606;52.930;8.644;2023-04-25T12:47:06;12.20;1.00
7129;DHT22;3606;52.930;8.644;2023-04-25T12:49:32;11.70;1.00
7129;DHT22;3606;52.930;8.644;2023-04-25T12:51:58;12.30;6.30
7129;DHT22;3606;52.930;8.644;2023-04-25T12:54:24;13.40;99.90
7129;DHT22;3606;52.930;8.644;2023-04-25T12:56:51;14.60;99.90
7129;DHT22;3606;52.930;8.644;2023-04-25T12:59:16;15.20;99.90
7129;DHT22;3606;52.930;8.644;2023-04-25T13:01:42;15.60;99.90
7129;DHT22;3606;52.930;8.644;2023-04-25T13:04:09;13.70;99.90
7129;DHT22;3606;52.930;8.644;2023-04-25T13:06:35;12.30;99.90
7129;DHT22;3606;52.930;8.644;2023-04-25T13:09:01;11.50;1.00
7129;DHT22;3606;52.930;8.644;2023-04-25T13:11:27;11.20;99.90
7129;DHT22;3606;52.930;8.644;2023-04-25T13:13:52;12.20;1.00
7129;DHT22;3606;52.930;8.644;2023-04-25T13:16:18;14.40;99.90
7129;DHT22;3606;52.930;8.644;2023-04-25T13:18:46;15.70;99.90
7129;DHT22;3606;52.930;8.644;2023-04-25T13:21:11;14.10;99.90
7129;DHT22;3606;52.930;8.644;2023-04-25T13:23:37;13.00;99.90
7129;DHT22;3606;52.930;8.644;2023-04-25T13:26:03;13.80;99.90
7129;DHT22;3606;52.930;8.644;2023-04-25T13:28:28;14.40;99.90
7129;DHT22;3606;52.930;8.644;2023-04-25T13:30:54;14.80;99.90
7129;DHT22;3606;52.930;8.644;2023-04-25T13:33:20;14.40;99.90
7129;DHT22;3606;52.930;8.644;2023-04-25T13:35:47;12.80;99.90
7129;DHT22;3606;52.930;8.644;2023-04-25T13:38:20;11.90;99.90
7129;DHT22;3606;52.930;8.644;2023-04-25T13:40:46;11.50;99.90
7129;DHT22;3606;52.930;8.644;2023-04-25T13:43:12;11.90;99.90
7129;DHT22;3606;52.930;8.644;2023-04-25T13:45:37;13.40;99.90
7129;DHT22;3606;52.930;8.644;2023-04-25T13:48:03;14.90;99.90
7129;DHT22;3606;52.930;8.644;2023-04-25T13:50:28;15.30;99.90
7129;DHT22;3606;52.930;8.644;2023-04-25T13:52:54;15.30;99.90
7129;DHT22;3606;52.930;8.644;2023-04-25T13:55:20;14.30;99.90
7129;DHT22;3606;52.930;8.644;2023-04-25T13:57:45;14.10;99.90
7129;DHT22;3606;52.930;8.644;2023-04-25T14:00:12;13.80;99.90
7129;DHT22;3606;52.930;8.644;2023-04-25T14:02:38;15.00;99.90
7129;DHT22;3606;52.930;8.644;2023-04-25T14:05:04;16.50;99.90
7129;DHT22;3606;52.930;8.644;2023-04-25T14:07:30;16.70;99.90
7129;DHT22;3606;52.930;8.644;2023-04-25T14:09:56;16.90;99.90
7129;DHT22;3606;52.930;8.644;2023-04-25T14:12:25;16.50;99.90
7129;DHT22;3606;52.930;8.644;2023-04-25T14:14:51;15.60;99.90
7129;DHT22;3606;52.930;8.644;2023-04-25T14:17:18;14.70;99.90
7129;DHT22;3606;52.930;8.644;2023-04-25T14:19:44;12.70;99.90
7129;DHT22;3606;52.930;8.644;2023-04-25T14:22:11;12.40;99.90
7129;DHT22;3606;52.930;8.644;2023-04-25T14:24:36;13.00;99.90
7129;DHT22;3606;52.930;8.644;2023-04-25T14:27:02;13.90;99.90
7129;DHT22;3606;52.930;8.644;2023-04-25T14:29:29;14.80;99.90
7129;DHT22;3606;52.930;8.644;2023-04-25T14:31:55;15.90;99.90
7129;DHT22;3606;52.930;8.644;2023-04-25T14:34:23;15.10;99.90
7129;DHT22;3606;52.930;8.644;2023-04-25T14:36:49;15.10;99.90
7129;DHT22;3606;52.930;8.644;2023-04-25T14:39:15;14.10;99.90
7129;DHT22;3606;52.930;8.644;2023-04-25T14:41:40;12.60;99.90
7129;DHT22;3606;52.930;8.644;2023-04-25T14:44:06;11.80;99.90
7129;DHT22;3606;52.930;8.644;2023-04-25T14:46:32;11.60;99.90
7129;DHT22;3606;52.930;8.644;2023-04-25T14:48:57;11.80;99.90
7129;DHT22;3606;52.930;8.644;2023-04-25T14:51:23;11.70;99.90
7129;DHT22;3606;52.930;8.644;2023-04-25T14:53:48;11.70;99.90
7129;DHT22;3606;52.930;8.644;2023-04-25T14:56:14;11.90;99.90
7129;DHT22;3606;52.930;8.644;2023-04-25T14:58:40;13.00;99.90
7129;DHT22;3606;52.930;8.644;2023-04-25T15:01:06;14.10;99.90
7129;DHT22;3606;52.930;8.644;2023-04-25T15:03:32;14.90;99.90
7129;DHT22;3606;52.930;8.644;2023-04-25T15:05:58;15.40;99.90
7129;DHT22;3606;52.930;8.644;2023-04-25T15:08:23;14.60;99.90
7129;DHT22;3606;52.930;8.644;2023-04-25T15:10:49;14.90;99.90
7129;DHT22;3606;52.930;8.644;2023-04-25T15:13:18;14.50;99.90
7129;DHT22;3606;52.930;8.644;2023-04-25T15:15:44;14.20;99.90
7129;DHT22;3606;52.930;8.644;2023-04-25T15:18:10;12.70;99.90
7129;DHT22;3606;52.930;8.644;2023-04-25T15:20:35;11.70;99.90
7129;DHT22;3606;52.930;8.644;2023-04-25T15:23:01;11.10;99.90
7129;DHT22;3606;52.930;8.644;2023-04-25T15:25:28;12.10;99.90
7129;DHT22;3606;52.930;8.644;2023-04-25T15:27:54;13.60;99.90
7129;DHT22;3606;52.930;8.644;2023-04-25T15:30:20;14.40;99.90
7129;DHT22;3606;52.930;8.644;2023-04-25T15:32:46;13.60;99.90
7129;DHT22;3606;52.930;8.644;2023-04-25T15:35:13;13.10;99.90
7129;DHT22;3606;52.930;8.644;2023-04-25T15:37:39;12.30;99.90
7129;DHT22;3606;52.930;8.644;2023-04-25T15:40:14;12.10;99.90
7129;DHT22;3606;52.930;8.644;2023-04-25T15:42:42;11.90;99.90
7129;DHT22;3606;52.930;8.644;2023-04-25T15:45:09;11.50;99.90
7129;DHT22;3606;52.930;8.644;2023-04-25T15:47:36;11.00;99.90
7129;DHT22;3606;52.930;8.644;2023-04-25T15:50:03;10.60;99.90
7129;DHT22;3606;52.930;8.644;2023-04-25T15:52:29;10.30;99.90
7129;DHT22;3606;52.930;8.644;2023-04-25T15:54:55;10.00;99.90
7129;DHT22;3606;52.930;8.644;2023-04-25T15:57:21;9.70;99.90
7129;DHT22;3606;52.930;8.644;2023-04-25T15:59:48;9.50;1.00
7129;DHT22;3606;52.930;8.644;2023-04-25T16:02:15;9.40;1.00
7129;DHT22;3606;52.930;8.644;2023-04-25T16:04:40;9.60;1.00
7129;DHT22;3606;52.930;8.644;2023-04-25T16:07:06;9.80;1.00
7129;DHT22;3606;52.930;8.644;2023-04-25T16:09:36;9.70;1.00
7129;DHT22;3606;52.930;8.644;2023-04-25T16:12:02;9.60;1.00
7129;DHT22;3606;52.930;8.644;2023-04-25T16:14:28;9.40;1.00
7129;DHT22;3606;52.930;8.644;2023-04-25T16:16:54;9.40;1.00
7129;DHT22;3606;52.930;8.644;2023-04-25T16:19:20;9.20;1.00
7129;DHT22;3606;52.930;8.644;2023-04-25T16:21:46;9.20;1.00
7129;DHT22;3606;52.930;8.644;2023-04-25T16:24:12;9.40;1.00
7129;DHT22;3606;52.930;8.644;2023-04-25T16:26:37;9.70;1.00
7129;DHT22;3606;52.930;8.644;2023-04-25T16:29:05;9.70;1.00
7129;DHT22;3606;52.930;8.644;2023-04-25T16:31:32;9.60;1.00
7129;DHT22;3606;52.930;8.644;2023-04-25T16:33:58;9.70;1.00
7129;DHT22;3606;52.930;8.644;2023-04-25T16:36:23;9.70;1.00